Timeline UpdatesTrip UpdatesNews PostsPvt Posts♥♥Travel TipsAdmin PostsConv PostsFollowed PostsChat RequestsBlog PostsPNR Posts

Disclaimer
Search
 
 
Sat Oct 25, 2014 11:07:02 ISTHomeTrainsΣChainsAtlasPNRForumGalleryNewsFAQTripsMembersLoginFeedback
No Recent News for this Train
Other Trains in the News **new
Latest...
.
Mon Sep 01, 2014 (09:54PM)
⇐ Return Journey: Train# 14016

14015/Sadbhavna Express

Time-Table HAS CHANGED.
Sep 01 2014 (9:54PM)
Change Departure Station:
Change Arrival Station:
Post a Train Travel TipPost a Train Travel Tip **new
Post a Comment/Question/Picture/VideoPost a Comment/Question/Picture/Video
Pantry/Catering
✕ NO Pantry Car
✓ Catering Avbl
Loco/Rake Reversals
MFP/Muzaffarpur Junction (6); SGL/Sagauli (3);
RSA - Rake Sharing
14007/14008
Rake/Coach Composition
TKD WDM#3A:SLR:GEN:GEN:GEN:GEN:GEN:S1:S2:S3:S4:S5:S6:S7:S8:S9:BI:GEN:GEN:GEN:SLR;;Entry# 229760 Author: ✖★яυℓєѕ я 4°• ƒσσℓѕ°° °°•ⓥⓘⓡDiesel Philic°°•ⓥⓘⓡ
Loco
TKD WDM-3A
News    PNR    Forum    Time-Table    Availability    Fare Chart    Map    Arr/Dep History    Trips    Gallery    ΣChains    X/O    Timeline    
Travel Time: 1h 42m    1 halts    Distance: 46 km    Avg Speed: 27 km/hr
Type: Mail/Express
Zone: NR/Northern
Departs @ 03:08 (Avg 2h 50m late)
Platform# ???
  T T  
Pilkhua/PKW 
Arrives @ 04:50 (Avg 2h 25m late)
Platform# 5
  T T  
Old Delhi Junction/DLI 

1 halts. 8 intermediate Stations between Pilkhua and Old Delhi Junction

Hide intermediate Stations  Show Old Time-Table

#TrkCodeStation NameX/OArrivesAvgDepartsAvgHaltPFDay#KmSpeedElevZoneAddress
1|--|RXLRaxaul Junction (5)  -00:35+1--1-1194.75088mECREast Champaran, Bihar
1.1|--|MSDHMasnadih  00:45-00:45-  1-1186.0 5079mECRUnchi Dih, Bihar
1.2|--|RGHRamgarhwa (1)  00:52-00:52-  1-1180.5 5075mECRRamgarhwa, Bihar
1.3|--|DRQDharminiya Halt  00:58-00:58-  1-1175.2 5074mECRBela, Bihar
2|--|SGLSagauli (3)O01:10+1201:35+1025m--1-1165.56973mECRSugauli, Bihar
2.1|--|SRASemra  01:43-01:43-  1-1156.3 6972mECRSemra Tola Bhola, Bihar
2.2|--|CHAHChailaha Halt  01:50-01:50-  1-1148.0 6973mECRChailaha, Bihar
3|--|BMKIBapudham Motihari (2)  01:53+1801:58+205m--1-1144.97472mECRMotihari, Bihar
3.1|--|MKIMotihari (2)  01:58-01:58-  1-1144.8 7473mECRMotihari, Bihar
3.2|--|MCOMotihari Court (1)  02:00-02:00-  1-1142.0 7474mECRMotihari Court, Bihar
3.3|--|JDRJiwdhara (1)  02:05-02:05-  1-1136.2 7470mECRJiwdhara, Bihar
3.4|--|BGARBangari  02:10-02:10-  1-1130.6 7470mECRBangari, Bihar
3.5|--|KPCMKuwarchintawanpur Halt  02:12-02:12-  1-1127.8 7465mECRRamgarh, Bihar
3.6|--|PPAPipra (2)  02:16-02:16-  1-1122.9 7469mECRNational Highway 28, Bihar
3.7|--|KXRKuria  02:19-02:19-  1-1119.0 7468mECRKuria, Bihar
4|--|CAAChakia (1)  02:24+2802:26+292m11-1112.84366mECRChakia, Bihar
4.1|--|HRNGHarpur Nag Halt  02:32-02:32-  1-1108.1 4367mECRNational Highway 28, Bihar
5|--|MAIMehsi (1)  02:38+2802:40+282m11-1104.26264mECRMehsi, Bihar
5.1|--|MHLMahwal  02:43-02:43-  1-1101.0 6263mECRMuzaffarpur, Bihar
6|--|MTRMotipur (1)  02:53+3202:55+322m11-1090.83162mECRRatanpura, Bihar
6.1|--|NRVNariyar  03:05-03:05-  1-1085.6 3159mECRNariyaar, Bihar
6.2|--|PPRHPiprahan Halt  03:13-03:13-  1-1081.6 3160mECRPiprahan, Bihar
6.3|--|KTIKantiX  03:21-03:21-  1-1077.4 3159mECRKanti, Bihar
6.4|--|KVCKaparpura  03:27-03:27-  1-1074.2 3159mECRNational Highway 28, Bihar
7|--|MFPMuzaffarpur Junction (6)X03:45+3104:15+3530m--1-1064.74657mECRMuzaffarpur, Bihar
7.1%=-/RDRam Dayalu Nagar (3)X  04:23-04:23-  1-1058.7 4656mECRMuzaffarpur, Bihar
7.2/--/TURTurki (2)  04:33-04:33-  1-1051.0 4655mECRTurki, Bihar
7.3/--/KHIKurhani (2)X  04:41-04:41-  1-1044.6 4656mECRKurhani, Bihar
7.4/--/GRLGoraul (2)  04:49-04:49-  1-1038.8 4657mECRVAISHALI, Bihar
7.5/--/BNPTBenipatti Pirapur (1)X  04:51-04:51-  1-1036.9 4655mECRGhojaul Rd, Bihar
7.6/--/BNRBhagwanpur (2)X  04:59-04:59-  1-1030.5 4660mECRBhagwanpur, Bihar
7.7/--/BTHLBithauli (1)  05:05-05:05-  1-1025.9 4658mECRVaishali, Bihar
7.8/--/SAISarai (1)X  05:11-05:11-  1-1021.5 4654mECRVaishali, Bihar
7.9/--/GWHGhoshawar (1)  05:19-05:19-  1-1015.4 4654mECRDaulatpur Deoria urf Daulatpur, Bihar
8/-=/HJPHajipur Junction (3)X  05:29 05:25+1:2205:34 05:30+1:265m--1-1010.93355mECR06224-272230, Bihar
9/==/SEESonpur Junction (4)  05:44 05:40+1:2805:47 05:43+1:283m--1-1005.46056mECRSaran, Bihar
9.1/==/PMUParmanandpur (2)  05:50-05:50-  1-998.7 6056mECRNational Highway 19, Bihar
9.2/==/NYONayagaon (2)  05:54-05:54-  1-994.1 6053mECRNayagaon Sarai, Bihar
9.3/==/STLRSitalpur (2)  06:02-06:02-  1-986.4 6057mECRSitalpur, Bihar
10/==/DGADighwara (2)  06:06+1:3306:08+1:342m--1-982.25860mECR06158-281240, Bihar
10.1/==/AABHAmbika Bhawani Halt (1)  06:12-06:12-  1-978.3 5859mECRNH 19, Bihar
10.2/==/ATNRAwatarnagar (2)  06:14-06:14-  1-976.4 5856mECRNH 19, Bihar
10.3/==/PPDAPanchpatia Deoria Halt (1)  06:16-06:16-  1-974.2 5857mECRNH 19, Bihar
10.4/==/BAGLBaragopal (2)  06:19-06:19-  1-971.4 5857mECRSH 46, Bihar
10.5/==/DRIDumri Juara (2)X  06:23-06:23-  1-967.3 5857mECRSaran, Bihar
10.6/==/GJHGoldinganj (2)X  06:28-06:28-  1-962.6 5858mECRChapra Patna Highway, Bihar
10.7/==/CIChhapra Kacheri (3)  06:38-06:38-  1-953.5 5857mNERChhapra, Bihar
11/==/CPRChhapra Junction (6)  06:40+1:5507:00+1:5620m--1-951.37058mNERDistt: Saran, Bihar
11.1|--|GTSTGautamsthan  07:08-07:08-  1-942.5 7061mNERRevelganjghat, Bihar
11.2|--|RVGRevelganj Ghat Halt (1)  07:09-07:09-  1-941.2 7061mNERChhapra, Bihar
11.3|--|MHTManjhi  07:14-07:14-  1-934.6 7061mNERManjhi, Bihar
11.4|--|BKLABakulhaX  07:19-07:19-  1-929.2 7056mNERBakulha, Uttar Pradesh
12|--|SIPSuraimanpur  07:25+2:0707:27+2:092m--1-922.15860mNERBallia, Uttar Pradesh
12.1|--|DCPDal Chapra  07:33-07:33-  1-916.4 5861mNERDal Chapra, Bihar
12.2|--|ROIReotiX  07:39-07:39-  1-911.1 5864mNERBallia district, Uttar Pradesh
12.3|--|STWSahatwar  07:47-07:47-  1-903.1 5863mNERBallia district, Uttar Pradesh
12.4|--|CATAChhata Aschaura  07:52-07:52-  1-897.9 5861mNERGirija Bhavan, Bihar
12.5|--|BCDBansdih Road  07:56-07:56-  1-894.4 5862mNERBansdih Road/, Uttar Pradesh
13|--|BUIBallia (3)  08:05+2:3408:10+2:345m31-885.78262mNERBallia, Uttar Pradesh
13.1|--|SVISagarpali  08:14-08:14-  1-880.2 8264mNERNational Highway 19, Uttar Pradesh
13.2|--|PEPPhephna JunctionX  08:18-08:18-  1-875.3 8266mNERBallia, Uttar Pradesh
13.3|--|CBNChit Baragaon  08:22-08:22-  1-869.0 8270mNERChitbaragaon, Uttar Pradesh
13.4|--|TJDTajpur Dehma  08:28-08:28-  1-861.6 8269mNERGosalpur Rd, Uttar Pradesh
13.5|--|KMDRKarimuddin Pur  08:33-08:33-  1-854.0 8270mNERKarimdinpur, Uttar Pradesh
13.6|--|DDDDhondha Dih  08:38-08:38-  1-847.5 8272mNERMDR 94E, Uttar Pradesh
14|--|YFPYusufpurX  08:43+2:5608:45+2:592m--1-840.64877mNERMDR 94E, Uttar Pradesh
14.1|--|SBKShahbaz Kuli  08:55-08:55-  1-833.1 4873mNERShahbaz Quli, Uttar Pradesh
14.2|--|GZTGhazipur Ghat  09:05-09:05-  1-824.8 4874mNERGhazipur, Uttar Pradesh
15|--|GCTGhazipur City (3)  09:10+3:0109:15+3:055m21-820.74374mNERGhazipur, Uttar Pradesh
15.1|--|AKSAnkuspur (1)  09:23-09:23-  1-814.9 4373mNERNational Highway 29, Uttar Pradesh
15.2|--|SAHRSaheri (1)  09:31-09:31-  1-809.1 4374mNERNational Highway 29, Uttar Pradesh
15.3|--|NDJNandGanj (1)X  09:40-09:40-  1-803.0 4377mNERNational Highway 29, Uttar Pradesh
15.4|--|BSCKBasuchak (1)  09:47-09:47-  1-797.7 4376mNERBasuchak-Rampur Mangha Rd, Uttar Pradesh
15.5|--|TRNTaraonX  09:52-09:52-  1-794.0 4382mNERTaraon Railway Station, Uttar Pradesh
15.6|--|SYHSaiyedpur Bhitri  10:03-10:03-  1-786.0 4384mNERSaidpur, Uttar Pradesh
16|--|ARJAunrihar Junction (4)X  10:10+2:5410:12+2:592m--1-781.22980mNERGhazipur, Uttar Pradesh
16.1|--|RJIRajawari  10:29-10:29-  1-772.9 2983mNERNational Highway 29, Uttar Pradesh
16.2|--|KDQKadipur  10:44-10:44-  1-765.9 2984mNERNational Highway 29, Uttar Pradesh
16.3|--|SRNTSarnath (2)  11:04-11:04-  1-755.9 2982mNERVaranasi, Uttar Pradesh
17|--|BCYVaranasi City (3)  11:16 11:18+2:5011:18 11:20+2:582m--1-749.31377mNERVaranasi, Uttar Pradesh
18|--|BSBVaranasi Junction (9)  11:35+2:3911:45+2:4810m31-746.06582mNRVaranasi 221002, Uttar Pradesh
18.1/==/BSBYVaranesi YardX  11:46-11:46-  1-745.0 6581mNRVaranasi, Uttar Pradesh
18.2/==/SOPShivpur (3)  11:50-11:50-  1-740.4 6581mNRVaranasi, Uttar Pradesh
18.3/==/BRPTBirapatti (2)X  11:56-11:56-  1-734.1 6584mNRRd Varanasi Uttar Pradesh, Uttar Pradesh
18.4/==/BTPBabatpur (2)  12:02-12:02-  1-727.5 6584mNRSatomahua-Mangari Rd, Uttar Pradesh
18.5/==/PDRDPindra Road (2)X  12:07-12:07-  1-722.0 6581mNRSatomahua-Mangari Rd, Uttar Pradesh
18.6/==/KSFKhalispur (2)  12:11-12:11-  1-718.2 6583mNRPhulpur, Uttar Pradesh
18.7/==/TLMDTrilochan Mahdo (2)  12:15-12:15-  1-713.0 6583mNRNational Highway 56, Uttar Pradesh
18.8/==/JLLJalalGanj (2)X  12:21-12:21-  1-706.8 6587mNRJalalganj Railway Station, Uttar Pradesh
18.9/==/SIQSarkoni (2)X  12:27-12:27-  1-700.9 6585mNRBandipur, Uttar Pradesh
18.10/==/ZBDZafarabad Junction (4)  12:32-12:32-  1-694.8 6583mNRNational Highway 56, Uttar Pradesh
18.11/==/JNUKJaunpur Kutchary  12:36-12:36-  1-691.2 6585mNRJaunpur, Uttar Pradesh
19/==/JOPJaunpur City (3)  12:38+3:0412:40+3:052m31-688.55487mNRJaunpur, Uttar Pradesh
19.1/==/BKSABakhsha (1)  12:52-12:52-  1-677.6 5487mNRBaksha, Uttar Pradesh
19.2/==/SVZSarai Harkhu (1)  13:01-13:01-  1-669.5 5489mNRNational Highway 56, Uttar Pradesh
19.3/==%SKNSri Krishna Nagar (2)  13:11-13:11-  1-660.6 5492mNRBadlapur, Uttar Pradesh
19.4%==%HRPGHarpalGanj (1)X  13:20-13:20-  1-652.6 5490mNRNational Highway 56, Uttar Pradesh
19.5%==%NIMGNima Gopalpur Halt (2)  13:28-13:28-  1-645.6 5493mNRShailkha, Uttar Pradesh
19.6%==%KEPRKoiripur (1)  13:32-13:32-  1-641.9 5496mNRNational Highway 56, Uttar Pradesh
19.7%==%CHDAChanda Halt  13:38-13:38-  1-636.3 54100mNRChanda, Uttar Pradesh
19.8%==%MWPMahrani Pachhim (1)  13:42-13:42-  1-632.7 5490mNRNational Highway 56, Uttar Pradesh
20%==%LBALambhua (1)  13:54 13:51+3:3113:55 13:53+3:351 2m11-624.71697mNRLambhua, Uttar Pradesh
20.1%==%BDINBhadaiyan (1)O  14:19-14:19-  1-617.8 1697mNRBhadaiya, Uttar Pradesh
20.2%==%PKXPakhruli (2)X  14:41-14:41-  1-611.8 16101mNRSahupur, Uttar Pradesh
21%==/SLNSultanpur Junction (3)  15:15+2:4015:30+2:3215m31-602.77699mNRSultanpur., Uttar Pradesh
21.1/==%BDKNBandhua Kalan (2)  15:37-15:37-  1-594.1 76106mNRNational Highway 56, Uttar Pradesh
21.2%==%SHNGShivnagar (2)  15:47-15:47-  1-580.7 76105mNRNational Highway 56, Uttar Pradesh
22%==%MFKAMusafir Khana (3)  15:55+3:0115:56+3:041m11-571.267105mNRMusfirKhana, Uttar Pradesh
22.1%==%AHZAdhinpur (2)  16:04-16:04-  1-562.7 67109mNRNational Highway 56, Uttar Pradesh
22.2%==%WGJWaris Ganj (1)  16:07-16:07-  1-559.2 67114mNRWaris Ganj, Uttar Pradesh
23%==%NHHNihalgarh (3)  16:13+3:1416:14+3:171m--1-552.337108mNRJagdishpur, Uttar Pradesh
23.1%==%SYWSindurwa (3)X  16:26-16:26-  1-545.1 37108mNRSindurwa Railway Station, Uttar Pradesh
23.2%==%AKJAkbarGanj (1)  16:39-16:39-  1-537.0 37112mNRSH 31, Uttar Pradesh
23.3%==%CHBSChaubisi (1)  16:53-16:53-  1-528.6 37119mNRNational Highway 56, Uttar Pradesh
23.4%==%HGHHaidergarh (2)  17:07-17:07-  1-520.1 37116mNRState Highway 13, Uttar Pradesh
23.5%==%TEGTirbediganj (2)  17:19-17:19-  1-512.4 37116mNRMangalpur, Uttar Pradesh
23.6%==/CDRLChhandrauli (2)X  17:33-17:33-  1-504.2 37120mNRChhandrauli, Uttar Pradesh
23.7/==/RMNRRahmatnagar (2)X  17:48-17:48-  1-495.3 37117mNRAmethi, Uttar Pradesh
23.8/==/APGAnupganj (2)  17:57-17:57-  1-489.7 37118mNRBaliyakhera, Uttar Pradesh
23.9/==/BKKSBakkas (2)X  18:10-18:10-  1-481.5 37121mNRBakas, Uttar Pradesh
23.10/==/UTRUtraitia Junction (2)  18:20-18:20-  1-475.5 37124mNRLucknow, Uttar Pradesh
23.11/==/BHAWBlock Hut A  18:27-18:27-  1-471.0 37121mNRLucknow, Uttar Pradesh
23.12/==/LBHDilkusha Cabin  18:33-18:33-  1-467.5 37116mNRLucknow, Uttar Pradesh
24/==/LKOLucknow Charbagh NR (9)X  18:40+2:2518:50+2:2610m71-463.415123mNR226004, Uttar Pradesh
24.1/==/LNWTLucknow West  18:57-18:57-  1-461.7 15123mNRLucknow, Uttar Pradesh
25/==/AMGAlamnagar (3)  19:18+3:0119:20+3:022m--1-456.385126mNRLucknow, Uttar Pradesh
25.1/==/KKJKakori (3)  19:25-19:25-  1-448.8 85129mNRSH 25, Uttar Pradesh
25.2/==/MLDMalihabad  19:32-19:32-  1-439.1 85130mNRMalihabad, Uttar Pradesh
25.3/==/DILDilawarnagarX  19:36-19:36-  1-433.5 85133mNRSH 25, Uttar Pradesh
25.4/==/RBDRahimabad  19:42-19:42-  1-425.9 85132mNRSH 25, Uttar Pradesh
25.5/==/SANSandila (3)X  19:49-19:49-  1-414.9 85132mNRSandila, Uttar Pradesh
25.6/==/UTAUmar TaliX  19:53-19:53-  1-409.6 85135mNRHardoi, Uttar Pradesh
25.7/==/DLQDalelnagar  19:58-19:58-  1-403.2 85136mNRSH 25, Uttar Pradesh
25.8/==/BLMBalamau Junction (4)X  20:04-20:04-  1-394.5 85139mNRBalamau, Uttar Pradesh
25.9/==/BGHBaghauli  20:10-20:10-  1-385.8 85141mNRsharda nehar, Uttar Pradesh
25.10/==/MSTMasitX  20:15-20:15-  1-378.9 85141mNRSH 25, Uttar Pradesh
25.11/==/KARKarnaX  20:20-20:20-  1-371.4 85143mNRHardoi, Uttar Pradesh
26/==/HRIHardoi (5)  20:27+3:0520:32+3:075m11-361.554146mNRHardoi, Uttar Pradesh
26.1/==/KUFKaurha  20:41-20:41-  1-353.1 54148mNRSH 25, Uttar Pradesh
26.2/==/BEGBehtagokulX  20:51-20:51-  1-344.2 54152mNRBehtagokul, Uttar Pradesh
26.3/==/TDPTodarpur  20:58-20:58-  1-337.8 54147mNRSH 25, Uttar Pradesh
26.4/==/SHRMSharma  21:01-21:01-  1-335.2 54150mNRSH 25, Uttar Pradesh
26.5/==/AJIAnjhi Shahabad  21:08-21:08-  1-329.3 54148mNRAnjhi Shahabad, Uttar Pradesh
26.6/==/AIGAlgawanX  21:15-21:15-  1-323.0 54152mNRAlgawan, Uttar Pradesh
26.7/==/KHKahiliya  21:24-21:24-  1-314.5 54152mNRSH 25, Uttar Pradesh
26.8/==/PRPMPt Ram Prasad Bismil  21:29-21:29-  1-310.1 54154mNRState Highway 25, Uttar Pradesh
26.9/==/ROZARoza Junction (4)  21:34-21:34-  1-305.9 54156mNRShahjahanpur, Uttar Pradesh
26.10/==/SXKShahjahanpur CourtX  21:41-21:41-  1-299.5 54160mNRShahjahanpur, Uttar Pradesh
27/==/SPNShahjahanpur Junction (3)X  21:42+3:1421:47+3:145m--1-298.564156mNRShahjahanpur, Uttar Pradesh
27.1/==/BTRABanthra  21:55-21:55-  1-290.1 64154mNRNH 24, Uttar Pradesh
27.2/==/BHDHBahadurpur Halt  22:00-22:00-  1-284.5 64154mNRNH 24, Uttar Pradesh
27.3/==/TLHTilhar  22:04-22:04-  1-280.3 64163mNRTilhar, Uttar Pradesh
27.4/==/MILAMilakpur HaltX  22:07-22:07-  1-276.7 64158mNRDhanela, Uttar Pradesh
27.5/==/MKMiranpur Katra  22:13-22:13-  1-270.6 64162mNRShahjahanpur, Uttar Pradesh
27.6/==/KSRKKasrak Halt  22:13-22:13-  1-270.4 64162mNRKatra, Uttar Pradesh
27.7/==/BLPUBilpurO  22:20-22:20-  1-263.4 64161mNRFatehganj, Uttar Pradesh
27.8/==/TSATisuaX  22:26-22:26-  1-256.4 64165mNRNational Highway 24, Uttar Pradesh
27.9/==/PMRPitambarpur (3)  22:34-22:34-  1-247.9 64171mNRPitambarpur, Uttar Pradesh
27.10/==/RYSRasuriyaX  22:43-22:43-  1-238.4 64174mNRNH 24, Uttar Pradesh
27.11/==/CHTIChanehti Junction  22:49-22:49-  1-231.8 64168mNRBareilly, Uttar Pradesh
27.12|--|BEBareilly Junction (4)  22:53-22:53-  1-228.0 64174mNRBareilly, Uttar Pradesh
27.13|--|RGBRamganga  22:59-22:59-  1-221.5 64170mNRState Highway 33, Uttar Pradesh
27.14|--|RSCRamganga South Cabin  22:59-22:59-  1-220.9 64162mNERFaridapur Thakuran, Uttar Pradesh
27.15|--|BTGBasharatGanj  23:07-23:07-  1-212.4 64167mNRBareilly, Uttar Pradesh
27.16|--|NSUNisui  23:12-23:12-  1-207.7 64167mNRAonla- Bareilly Link Rd, Uttar Pradesh
28|--|AOAonla (2)  23:18+3:2223:20+3:232m--1-201.156176mNRDist. Bareilly, Uttar Pradesh
28.1|--|RBKReoti B Khera (1)  23:26-23:26-  1-195.4 56177mNRReoti B Khera, Uttar Pradesh
28.2|--|KEGKarengi  23:34-23:34-  1-188.4 56183mNRKarengi, Uttar Pradesh
28.3|--|DUBDabtara (2)  23:39-23:39-  1-183.1 56183mNRBisauli, Uttar Pradesh
28.4|--|PRKEPurua Khera  23:45-23:45-  1-177.7 56182mNRDist. Badaun, Uttar Pradesh
28.5|--|AFRAsafpur  23:50-23:50-  1-172.6 56186mNRDist. Badaun, Uttar Pradesh
28.6|--|SSKASisarka  23:57-23:57-  1-166.3 56188mNRState Highway 43, Uttar Pradesh
29|--|CHChandausi Junction (3)  00:05+3:1800:10+3:185m--2-158.944193mNRChandausi, Uttar Pradesh
29.1|--|GTFGumthal  00:22-00:22-  2-150.3 44192mNRRaja Ka Sahaspur, Uttar Pradesh
29.2|--|KZSKuakhera Halt  00:26-00:26-  2-147.4 44194mNRChandausi, Uttar Pradesh
29.3|--|JRJJargaon  00:30-00:30-  2-144.7 44190mNRChandausi, Uttar Pradesh
29.4|--|RJKRaja Ka Sahaspur  00:37-00:37-  2-139.0 44196mNRBilari, Uttar Pradesh
29.5|--|KDKundarkhi  00:45-00:45-  2-133.2 44198mNRKundarki, Uttar Pradesh
29.6|--|FRDFarhedi  00:51-00:51-  2-128.9 44201mNRMoradabad- Chandausi Rd, Uttar Pradesh
29.7|--|MCVMacharya  00:55-00:55-  2-126.4 44195mNRKundarkhi, Uttar Pradesh
30|--|MBMoradabad Junction (7)X  01:15 01:10+3:0101:25 01:20+3:0110m52-115.165201mNRMoradabad, Uttar Pradesh
30.1%==%LPBLodipur Bishanpur  01:31-01:31-  2-102.9 65202mNRBishanpur, Uttar Pradesh
30.2%==%LDPLodipur Bishnupur (2)X  01:31-01:31-  2-102.8 65200mNRHarthala Station Rd, Uttar Pradesh
30.3%==%HKPHakimpur (2)  01:35-01:35-  2-98.5 65204mNRSH 78, Uttar Pradesh
30.4%==%CKLTChak Kali Lait (2)  01:39-01:39-  2-94.9 65211mNRSH 78, Uttar Pradesh
30.5%==%KIVKaialsa (2)  01:42-01:42-  2-91.0 65211mNRSH 78, Uttar Pradesh
31%==%AMROAmroha (3)X  01:56 01:48+3:0401:58 01:50+3:062m22-84.676217mNRAmroha, Uttar Pradesh
31.1%==%KFPRKafurpur  01:59-01:59-  2-73.1 76215mNRRajabpur, Uttar Pradesh
31.2%==%MHHRMahesra (2)  02:02-02:02-  2-70.0 76214mNRNH 24, Uttar Pradesh
31.3%==%GJLGajraula Junction (4)  02:08-02:08-  2-61.8 76211mNRGujraula, Uttar Pradesh
31.4%==%KHEKankather  02:14-02:14-  2-54.1 76204mNRNational Highway 24, Uttar Pradesh
31.5%==%GGBGarhmuktesar Bridge (1)X  02:19-02:19-  2-47.8 76202mNRNH-24, Uttar Pradesh
31.6%==%GMSGarhmuktesar (3)  02:24-02:24-  2-41.0 76218mNRGarhmukteshwar, Uttar Pradesh
31.7%==%SMBLSimbhooli (2)  02:32-02:32-  2-31.6 76217mNRSimbhauli, Uttar Pradesh
31.8%==%SKHRSikhera Mb Halt  02:35-02:35-  2-28.0 76215mNRRajpur, Uttar Pradesh
31.9%==%QXRKuchesar Road  02:37-02:37-  2-24.5 76216mNRHapur Rd, Uttar Pradesh
31.10%==%BBOBabugarh  02:42-02:42-  2-18.8 76211mNRGhaziabad, Uttar Pradesh
32%==%HPUHapur Junction (4)  03:03 02:48+3:3903:05 02:50+3:412m--2-11.242214mNRHapur Jn., Uttar Pradesh
32.1%==%KKMBKastla Kasmabad Halt (2)  03:00-03:00-  2-4.4 42214mNRHapur Rd, Uttar Pradesh
33%==%PKWPilkhua (3)»X  03:16 03:06+2:5003:18 03:08+2:502m--20.030218mNRPilkhuwa, Uttar Pradesh
33.1%==%DSDasna (1)  03:33-03:33-  212.3 30216mNRHapur Rd, Uttar Pradesh
33.2%==%AKNRAdhyatmik Nagar (2)  03:38-03:38-  214.9 30213mNRAdhyatmik, Uttar Pradesh
33.3%==%MFHMahrauli (3)  03:45-03:45-  218.4 30218mNRGhaziabad, Uttar Pradesh
34%==%GZBGhaziabad Junction (6)  04:00+2:3904:02+2:382m3225.625217mNRGhaziabad, Uttar Pradesh
34.1/==/SBBSahibabad Junction (5)  04:18-04:18-  232.3 25209mNRGhaziabad, Uttar Pradesh
34.2/==/DSAPDelhi Shahdara A Panel  04:28-04:28-  236.6 25208mNRVivek Vihar Phase I, Delhi NCT
34.3/==/VVBVivek Vihar (2)  04:29-04:29-  236.8 25209mNRJhilmil Industrial Area, Delhi NCT
34.4/==/DSAShahdara Junction (4)  04:35-04:35-  239.2 25212mNRCircular Rd, Delhi NCT
35/==/DLIOld Delhi Junction (16)•  04:50+2:25-5245.6-219mNRNear Chandni Chowk Metro Station, Delhi NCT
Scroll to Top
Scroll to Bottom